sensor_id;sensor_type;location;lat;lon;timestamp;P1;durP1;ratioP1;P2;durP2;ratioP2
74715;SDS011;63234;37.558;127.058;2023-08-17T00:02:21;63.78;;;54.60;;
74715;SDS011;63234;37.558;127.058;2023-08-17T00:04:47;52.58;;;47.13;;
74715;SDS011;63234;37.558;127.058;2023-08-17T00:07:13;51.08;;;45.95;;
74715;SDS011;63234;37.558;127.058;2023-08-17T00:09:39;58.10;;;51.88;;
74715;SDS011;63234;37.558;127.058;2023-08-17T00:12:05;56.60;;;49.70;;
74715;SDS011;63234;37.558;127.058;2023-08-17T00:14:31;53.42;;;47.85;;
74715;SDS011;63234;37.558;127.058;2023-08-17T00:16:57;52.22;;;46.80;;
74715;SDS011;63234;37.558;127.058;2023-08-17T00:19:23;34.35;;;28.83;;
74715;SDS011;63234;37.558;127.058;2023-08-17T00:21:49;40.63;;;32.63;;
74715;SDS011;63234;37.558;127.058;2023-08-17T00:24:16;24.65;;;22.25;;
74715;SDS011;63234;37.558;127.058;2023-08-17T00:26:42;22.58;;;20.30;;
74715;SDS011;63234;37.558;127.058;2023-08-17T00:29:08;32.65;;;23.95;;
74715;SDS011;63234;37.558;127.058;2023-08-17T00:31:34;9.68;;;5.85;;
74715;SDS011;63234;37.558;127.058;2023-08-17T00:34:00;9.88;;;5.35;;
74715;SDS011;63234;37.558;127.058;2023-08-17T00:36:26;8.35;;;4.95;;
74715;SDS011;63234;37.558;127.058;2023-08-17T00:38:52;8.35;;;4.60;;
74715;SDS011;63234;37.558;127.058;2023-08-17T00:41:17;17.40;;;11.15;;
74715;SDS011;63234;37.558;127.058;2023-08-17T00:43:43;10.43;;;5.75;;
74715;SDS011;63234;37.558;127.058;2023-08-17T00:46:10;8.85;;;4.72;;
74715;SDS011;63234;37.558;127.058;2023-08-17T00:48:37;6.30;;;3.60;;
74715;SDS011;63234;37.558;127.058;2023-08-17T00:51:03;7.20;;;3.00;;
74715;SDS011;63234;37.558;127.058;2023-08-17T00:53:29;19.58;;;11.90;;
74715;SDS011;63234;37.558;127.058;2023-08-17T00:55:57;12.60;;;7.40;;
74715;SDS011;63234;37.558;127.058;2023-08-17T00:58:24;8.60;;;4.25;;
74715;SDS011;63234;37.558;127.058;2023-08-17T01:00:52;8.30;;;4.15;;
74715;SDS011;63234;37.558;127.058;2023-08-17T01:03:18;5.80;;;3.58;;
74715;SDS011;63234;37.558;127.058;2023-08-17T01:05:46;9.93;;;4.47;;
74715;SDS011;63234;37.558;127.058;2023-08-17T01:08:12;6.93;;;3.63;;
74715;SDS011;63234;37.558;127.058;2023-08-17T01:16:29;12.93;;;8.32;;
74715;SDS011;63234;37.558;127.058;2023-08-17T01:18:58;9.50;;;4.97;;
74715;SDS011;63234;37.558;127.058;2023-08-17T01:21:30;7.47;;;3.45;;
74715;SDS011;63234;37.558;127.058;2023-08-17T01:24:07;8.27;;;4.13;;
74715;SDS011;63234;37.558;127.058;2023-08-17T01:26:33;7.18;;;3.30;;
74715;SDS011;63234;37.558;127.058;2023-08-17T01:28:59;5.13;;;3.05;;
74715;SDS011;63234;37.558;127.058;2023-08-17T01:31:29;10.98;;;7.00;;
74715;SDS011;63234;37.558;127.058;2023-08-17T01:34:04;6.75;;;3.17;;
74715;SDS011;63234;37.558;127.058;2023-08-17T01:36:35;7.55;;;3.72;;
74715;SDS011;63234;37.558;127.058;2023-08-17T01:39:05;5.82;;;3.13;;
74715;SDS011;63234;37.558;127.058;2023-08-17T01:41:32;8.02;;;3.42;;
74715;SDS011;63234;37.558;127.058;2023-08-17T01:43:59;9.82;;;3.80;;
74715;SDS011;63234;37.558;127.058;2023-08-17T01:46:29;13.52;;;7.20;;
74715;SDS011;63234;37.558;127.058;2023-08-17T01:49:00;9.07;;;6.50;;
74715;SDS011;63234;37.558;127.058;2023-08-17T01:51:26;7.05;;;3.13;;
74715;SDS011;63234;37.558;127.058;2023-08-17T01:53:52;14.25;;;7.13;;
74715;SDS011;63234;37.558;127.058;2023-08-17T01:56:18;8.77;;;3.60;;
74715;SDS011;63234;37.558;127.058;2023-08-17T01:58:44;6.95;;;3.22;;
74715;SDS011;63234;37.558;127.058;2023-08-17T02:01:10;6.30;;;3.67;;
74715;SDS011;63234;37.558;127.058;2023-08-17T02:03:36;15.80;;;7.88;;
74715;SDS011;63234;37.558;127.058;2023-08-17T02:06:02;9.95;;;4.28;;
74715;SDS011;63234;37.558;127.058;2023-08-17T02:08:29;9.32;;;3.60;;
74715;SDS011;63234;37.558;127.058;2023-08-17T02:10:55;7.20;;;3.85;;
74715;SDS011;63234;37.558;127.058;2023-08-17T02:13:21;15.02;;;9.00;;
74715;SDS011;63234;37.558;127.058;2023-08-17T02:15:47;16.67;;;10.68;;
74715;SDS011;63234;37.558;127.058;2023-08-17T02:18:14;10.30;;;5.65;;
74715;SDS011;63234;37.558;127.058;2023-08-17T02:20:39;9.60;;;5.15;;
74715;SDS011;63234;37.558;127.058;2023-08-17T02:23:05;12.13;;;6.68;;
74715;SDS011;63234;37.558;127.058;2023-08-17T02:25:31;11.75;;;6.07;;
74715;SDS011;63234;37.558;127.058;2023-08-17T02:28:03;10.05;;;6.03;;
74715;SDS011;63234;37.558;127.058;2023-08-17T02:30:29;10.88;;;7.35;;
74715;SDS011;63234;37.558;127.058;2023-08-17T02:32:56;12.50;;;6.70;;
74715;SDS011;63234;37.558;127.058;2023-08-17T02:35:22;12.20;;;6.43;;
74715;SDS011;63234;37.558;127.058;2023-08-17T02:37:48;13.60;;;11.25;;
74715;SDS011;63234;37.558;127.058;2023-08-17T02:40:14;10.82;;;8.57;;
74715;SDS011;63234;37.558;127.058;2023-08-17T02:42:40;7.55;;;3.92;;
74715;SDS011;63234;37.558;127.058;2023-08-17T02:45:06;9.63;;;4.63;;
74715;SDS011;63234;37.558;127.058;2023-08-17T02:47:32;10.68;;;5.13;;
74715;SDS011;63234;37.558;127.058;2023-08-17T02:49:58;7.82;;;4.63;;
74715;SDS011;63234;37.558;127.058;2023-08-17T02:52:24;17.08;;;10.52;;
74715;SDS011;63234;37.558;127.058;2023-08-17T02:54:50;11.77;;;4.88;;
74715;SDS011;63234;37.558;127.058;2023-08-17T02:57:16;11.82;;;6.85;;
74715;SDS011;63234;37.558;127.058;2023-08-17T02:59:43;28.52;;;22.48;;
74715;SDS011;63234;37.558;127.058;2023-08-17T03:02:09;18.75;;;16.75;;
74715;SDS011;63234;37.558;127.058;2023-08-17T03:04:35;15.48;;;12.27;;
74715;SDS011;63234;37.558;127.058;2023-08-17T03:07:01;22.25;;;19.88;;
74715;SDS011;63234;37.558;127.058;2023-08-17T03:09:27;35.70;;;29.08;;
74715;SDS011;63234;37.558;127.058;2023-08-17T03:11:53;24.70;;;22.25;;
74715;SDS011;63234;37.558;127.058;2023-08-17T03:14:19;19.65;;;17.65;;
74715;SDS011;63234;37.558;127.058;2023-08-17T03:16:45;22.00;;;19.73;;
74715;SDS011;63234;37.558;127.058;2023-08-17T03:19:11;35.33;;;30.98;;
74715;SDS011;63234;37.558;127.058;2023-08-17T03:21:37;34.83;;;31.63;;
74715;SDS011;63234;37.558;127.058;2023-08-17T03:24:04;32.17;;;29.17;;
74715;SDS011;63234;37.558;127.058;2023-08-17T03:26:30;36.17;;;32.47;;
74715;SDS011;63234;37.558;127.058;2023-08-17T03:28:56;28.50;;;21.98;;
74715;SDS011;63234;37.558;127.058;2023-08-17T03:31:22;14.75;;;11.95;;
74715;SDS011;63234;37.558;127.058;2023-08-17T03:33:48;13.05;;;10.98;;
74715;SDS011;63234;37.558;127.058;2023-08-17T03:36:14;27.23;;;21.77;;
74715;SDS011;63234;37.558;127.058;2023-08-17T03:38:40;12.40;;;7.32;;
74715;SDS011;63234;37.558;127.058;2023-08-17T03:41:07;12.95;;;11.13;;
74715;SDS011;63234;37.558;127.058;2023-08-17T03:43:33;31.15;;;25.85;;
74715;SDS011;63234;37.558;127.058;2023-08-17T03:45:59;31.83;;;25.80;;
74715;SDS011;63234;37.558;127.058;2023-08-17T03:48:25;15.32;;;12.40;;
74715;SDS011;63234;37.558;127.058;2023-08-17T03:50:54;15.52;;;13.43;;
74715;SDS011;63234;37.558;127.058;2023-08-17T03:53:20;25.60;;;23.10;;
74715;SDS011;63234;37.558;127.058;2023-08-17T03:55:47;25.98;;;23.38;;
74715;SDS011;63234;37.558;127.058;2023-08-17T03:58:13;34.72;;;31.23;;
74715;SDS011;63234;37.558;127.058;2023-08-17T04:00:40;34.72;;;31.60;;
74715;SDS011;63234;37.558;127.058;2023-08-17T04:03:06;26.48;;;23.70;;
74715;SDS011;63234;37.558;127.058;2023-08-17T04:05:32;34.55;;;31.35;;
74715;SDS011;63234;37.558;127.058;2023-08-17T04:07:58;37.63;;;31.65;;
74715;SDS011;63234;37.558;127.058;2023-08-17T04:10:28;41.58;;;36.90;;
74715;SDS011;63234;37.558;127.058;2023-08-17T04:12:55;44.08;;;39.92;;
74715;SDS011;63234;37.558;127.058;2023-08-17T04:15:24;42.70;;;38.47;;
74715;SDS011;63234;37.558;127.058;2023-08-17T04:17:50;46.30;;;41.33;;
74715;SDS011;63234;37.558;127.058;2023-08-17T04:20:16;44.55;;;40.35;;
74715;SDS011;63234;37.558;127.058;2023-08-17T04:22:43;56.25;;;48.97;;
74715;SDS011;63234;37.558;127.058;2023-08-17T04:25:09;45.33;;;40.58;;
74715;SDS011;63234;37.558;127.058;2023-08-17T04:27:36;36.83;;;33.40;;
74715;SDS011;63234;37.558;127.058;2023-08-17T04:30:02;49.00;;;44.20;;
74715;SDS011;63234;37.558;127.058;2023-08-17T04:32:28;53.03;;;47.45;;
74715;SDS011;63234;37.558;127.058;2023-08-17T04:34:55;57.38;;;50.25;;
74715;SDS011;63234;37.558;127.058;2023-08-17T04:37:21;63.22;;;52.95;;
74715;SDS011;63234;37.558;127.058;2023-08-17T04:39:47;66.65;;;54.55;;
74715;SDS011;63234;37.558;127.058;2023-08-17T04:42:14;71.03;;;56.83;;
74715;SDS011;63234;37.558;127.058;2023-08-17T04:44:40;59.67;;;53.13;;
74715;SDS011;63234;37.558;127.058;2023-08-17T04:47:07;53.50;;;48.00;;
74715;SDS011;63234;37.558;127.058;2023-08-17T04:49:34;56.22;;;50.33;;
74715;SDS011;63234;37.558;127.058;2023-08-17T04:52:00;76.10;;;60.60;;
74715;SDS011;63234;37.558;127.058;2023-08-17T04:54:26;63.17;;;54.70;;
74715;SDS011;63234;37.558;127.058;2023-08-17T04:56:52;70.60;;;58.00;;
74715;SDS011;63234;37.558;127.058;2023-08-17T04:59:18;49.10;;;44.25;;
74715;SDS011;63234;37.558;127.058;2023-08-17T05:01:44;57.08;;;51.13;;
74715;SDS011;63234;37.558;127.058;2023-08-17T05:04:10;67.07;;;57.17;;
74715;SDS011;63234;37.558;127.058;2023-08-17T05:06:36;65.22;;;55.70;;
74715;SDS011;63234;37.558;127.058;2023-08-17T05:09:03;56.85;;;50.70;;
74715;SDS011;63234;37.558;127.058;2023-08-17T05:11:30;62.00;;;55.08;;
74715;SDS011;63234;37.558;127.058;2023-08-17T05:13:56;65.60;;;55.83;;
74715;SDS011;63234;37.558;127.058;2023-08-17T05:16:22;65.72;;;55.92;;
74715;SDS011;63234;37.558;127.058;2023-08-17T05:18:48;62.78;;;54.92;;
74715;SDS011;63234;37.558;127.058;2023-08-17T05:21:14;61.63;;;53.63;;
74715;SDS011;63234;37.558;127.058;2023-08-17T05:23:40;73.20;;;58.58;;
74715;SDS011;63234;37.558;127.058;2023-08-17T05:26:06;70.03;;;57.28;;
74715;SDS011;63234;37.558;127.058;2023-08-17T05:28:33;58.08;;;51.00;;
74715;SDS011;63234;37.558;127.058;2023-08-17T05:31:04;58.55;;;52.28;;
74715;SDS011;63234;37.558;127.058;2023-08-17T05:33:31;74.45;;;59.38;;
74715;SDS011;63234;37.558;127.058;2023-08-17T05:35:57;72.85;;;59.22;;
74715;SDS011;63234;37.558;127.058;2023-08-17T05:38:23;60.42;;;53.85;;
74715;SDS011;63234;37.558;127.058;2023-08-17T05:40:54;63.80;;;55.03;;
74715;SDS011;63234;37.558;127.058;2023-08-17T05:43:21;77.85;;;61.65;;
74715;SDS011;63234;37.558;127.058;2023-08-17T05:45:47;68.28;;;57.78;;
74715;SDS011;63234;37.558;127.058;2023-08-17T05:48:12;66.00;;;56.60;;
74715;SDS011;63234;37.558;127.058;2023-08-17T05:50:41;69.90;;;57.83;;
74715;SDS011;63234;37.558;127.058;2023-08-17T05:53:08;63.60;;;54.10;;
74715;SDS011;63234;37.558;127.058;2023-08-17T05:55:34;73.55;;;58.38;;
74715;SDS011;63234;37.558;127.058;2023-08-17T05:58:00;66.95;;;57.03;;
74715;SDS011;63234;37.558;127.058;2023-08-17T06:00:27;68.30;;;57.88;;
74715;SDS011;63234;37.558;127.058;2023-08-17T06:02:53;67.70;;;57.03;;
74715;SDS011;63234;37.558;127.058;2023-08-17T06:05:22;51.75;;;46.30;;
74715;SDS011;63234;37.558;127.058;2023-08-17T06:07:51;65.55;;;56.38;;
74715;SDS011;63234;37.558;127.058;2023-08-17T06:10:17;78.70;;;61.75;;
74715;SDS011;63234;37.558;127.058;2023-08-17T06:12:42;66.88;;;56.47;;
74715;SDS011;63234;37.558;127.058;2023-08-17T06:15:08;64.93;;;55.85;;
74715;SDS011;63234;37.558;127.058;2023-08-17T06:17:35;63.13;;;55.47;;
74715;SDS011;63234;37.558;127.058;2023-08-17T06:20:00;69.72;;;57.55;;
74715;SDS011;63234;37.558;127.058;2023-08-17T06:22:28;64.18;;;56.25;;
74715;SDS011;63234;37.558;127.058;2023-08-17T06:24:54;66.00;;;56.20;;
74715;SDS011;63234;37.558;127.058;2023-08-17T06:27:20;66.97;;;54.58;;
74715;SDS011;63234;37.558;127.058;2023-08-17T06:29:46;69.30;;;58.40;;
74715;SDS011;63234;37.558;127.058;2023-08-17T06:32:12;61.30;;;52.35;;
74715;SDS011;63234;37.558;127.058;2023-08-17T06:34:37;48.63;;;43.50;;
74715;SDS011;63234;37.558;127.058;2023-08-17T06:37:03;46.10;;;41.35;;
74715;SDS011;63234;37.558;127.058;2023-08-17T06:39:30;45.20;;;40.03;;
74715;SDS011;63234;37.558;127.058;2023-08-17T06:41:56;45.10;;;40.60;;
74715;SDS011;63234;37.558;127.058;2023-08-17T06:44:22;40.70;;;35.85;;
74715;SDS011;63234;37.558;127.058;2023-08-17T06:46:48;41.72;;;37.40;;
74715;SDS011;63234;37.558;127.058;2023-08-17T06:49:14;30.85;;;27.58;;
74715;SDS011;63234;37.558;127.058;2023-08-17T06:51:40;32.97;;;26.27;;
74715;SDS011;63234;37.558;127.058;2023-08-17T06:54:07;38.15;;;34.30;;
74715;SDS011;63234;37.558;127.058;2023-08-17T06:56:34;42.58;;;33.08;;
74715;SDS011;63234;37.558;127.058;2023-08-17T06:59:00;34.65;;;31.05;;
74715;SDS011;63234;37.558;127.058;2023-08-17T07:01:26;36.75;;;31.85;;
74715;SDS011;63234;37.558;127.058;2023-08-17T07:03:52;32.70;;;29.30;;
74715;SDS011;63234;37.558;127.058;2023-08-17T07:06:18;20.27;;;12.35;;
74715;SDS011;63234;37.558;127.058;2023-08-17T07:08:44;33.92;;;22.58;;
74715;SDS011;63234;37.558;127.058;2023-08-17T07:11:11;37.60;;;32.90;;
74715;SDS011;63234;37.558;127.058;2023-08-17T07:13:37;54.15;;;39.85;;
74715;SDS011;63234;37.558;127.058;2023-08-17T07:16:03;44.03;;;29.40;;
74715;SDS011;63234;37.558;127.058;2023-08-17T07:18:29;45.58;;;32.25;;
74715;SDS011;63234;37.558;127.058;2023-08-17T07:20:55;19.15;;;8.70;;
74715;SDS011;63234;37.558;127.058;2023-08-17T07:23:21;38.42;;;30.23;;
74715;SDS011;63234;37.558;127.058;2023-08-17T07:25:47;25.95;;;16.10;;
74715;SDS011;63234;37.558;127.058;2023-08-17T07:28:13;32.40;;;14.93;;
74715;SDS011;63234;37.558;127.058;2023-08-17T07:30:40;28.92;;;13.90;;
74715;SDS011;63234;37.558;127.058;2023-08-17T07:33:07;30.23;;;15.50;;
74715;SDS011;63234;37.558;127.058;2023-08-17T07:35:33;22.33;;;10.32;;
74715;SDS011;63234;37.558;127.058;2023-08-17T07:37:59;35.72;;;20.52;;
74715;SDS011;63234;37.558;127.058;2023-08-17T07:40:25;30.02;;;14.05;;
74715;SDS011;63234;37.558;127.058;2023-08-17T07:42:51;38.28;;;22.15;;
74715;SDS011;63234;37.558;127.058;2023-08-17T07:45:17;24.55;;;14.70;;
74715;SDS011;63234;37.558;127.058;2023-08-17T07:47:43;24.85;;;16.17;;
74715;SDS011;63234;37.558;127.058;2023-08-17T07:50:09;21.45;;;13.38;;
74715;SDS011;63234;37.558;127.058;2023-08-17T07:52:35;38.95;;;25.00;;
74715;SDS011;63234;37.558;127.058;2023-08-17T07:55:01;41.25;;;19.77;;
74715;SDS011;63234;37.558;127.058;2023-08-17T07:57:28;42.15;;;19.23;;
74715;SDS011;63234;37.558;127.058;2023-08-17T07:59:54;26.88;;;15.80;;
74715;SDS011;63234;37.558;127.058;2023-08-17T08:02:20;39.53;;;22.00;;
74715;SDS011;63234;37.558;127.058;2023-08-17T08:04:46;25.92;;;12.20;;
74715;SDS011;63234;37.558;127.058;2023-08-17T08:07:12;23.70;;;10.85;;
74715;SDS011;63234;37.558;127.058;2023-08-17T08:09:38;23.95;;;11.68;;
74715;SDS011;63234;37.558;127.058;2023-08-17T08:12:05;27.77;;;11.77;;
74715;SDS011;63234;37.558;127.058;2023-08-17T08:14:33;30.67;;;17.65;;
74715;SDS011;63234;37.558;127.058;2023-08-17T08:16:59;23.38;;;10.38;;
74715;SDS011;63234;37.558;127.058;2023-08-17T08:19:25;19.17;;;8.75;;
74715;SDS011;63234;37.558;127.058;2023-08-17T08:21:51;37.10;;;19.65;;
74715;SDS011;63234;37.558;127.058;2023-08-17T08:24:17;31.52;;;12.90;;
74715;SDS011;63234;37.558;127.058;2023-08-17T08:26:43;29.35;;;12.38;;
74715;SDS011;63234;37.558;127.058;2023-08-17T08:29:09;25.77;;;10.50;;
74715;SDS011;63234;37.558;127.058;2023-08-17T08:31:35;35.88;;;19.27;;
74715;SDS011;63234;37.558;127.058;2023-08-17T08:34:00;33.78;;;14.07;;
74715;SDS011;63234;37.558;127.058;2023-08-17T08:36:26;24.38;;;10.68;;
74715;SDS011;63234;37.558;127.058;2023-08-17T08:38:52;27.23;;;10.27;;
74715;SDS011;63234;37.558;127.058;2023-08-17T08:41:18;25.85;;;10.73;;
74715;SDS011;63234;37.558;127.058;2023-08-17T08:43:45;31.92;;;15.52;;
74715;SDS011;63234;37.558;127.058;2023-08-17T08:46:11;31.30;;;11.85;;
74715;SDS011;63234;37.558;127.058;2023-08-17T08:48:38;32.47;;;12.10;;
74715;SDS011;63234;37.558;127.058;2023-08-17T08:51:07;27.55;;;10.40;;
74715;SDS011;63234;37.558;127.058;2023-08-17T08:53:37;34.10;;;14.88;;
74715;SDS011;63234;37.558;127.058;2023-08-17T08:56:04;35.65;;;13.05;;
74715;SDS011;63234;37.558;127.058;2023-08-17T08:58:36;32.10;;;11.52;;
74715;SDS011;63234;37.558;127.058;2023-08-17T09:01:03;41.92;;;18.63;;
74715;SDS011;63234;37.558;127.058;2023-08-17T09:03:31;33.17;;;12.15;;
74715;SDS011;63234;37.558;127.058;2023-08-17T09:05:58;30.33;;;14.18;;
74715;SDS011;63234;37.558;127.058;2023-08-17T09:08:28;33.33;;;10.80;;
74715;SDS011;63234;37.558;127.058;2023-08-17T09:10:55;34.05;;;11.13;;
74715;SDS011;63234;37.558;127.058;2023-08-17T09:13:21;36.42;;;12.40;;
74715;SDS011;63234;37.558;127.058;2023-08-17T09:15:47;33.63;;;11.82;;
74715;SDS011;63234;37.558;127.058;2023-08-17T09:18:13;35.65;;;12.63;;
74715;SDS011;63234;37.558;127.058;2023-08-17T09:20:42;32.70;;;10.30;;
74715;SDS011;63234;37.558;127.058;2023-08-17T09:23:14;39.58;;;15.00;;
74715;SDS011;63234;37.558;127.058;2023-08-17T09:25:45;42.60;;;16.33;;
74715;SDS011;63234;37.558;127.058;2023-08-17T09:28:12;43.63;;;13.95;;
74715;SDS011;63234;37.558;127.058;2023-08-17T09:30:50;34.17;;;11.73;;
74715;SDS011;63234;37.558;127.058;2023-08-17T09:33:18;42.22;;;13.40;;
74715;SDS011;63234;37.558;127.058;2023-08-17T09:35:44;47.90;;;15.57;;
74715;SDS011;63234;37.558;127.058;2023-08-17T09:38:10;43.25;;;13.70;;
74715;SDS011;63234;37.558;127.058;2023-08-17T09:40:36;38.65;;;14.10;;
74715;SDS011;63234;37.558;127.058;2023-08-17T09:43:02;44.05;;;18.38;;
74715;SDS011;63234;37.558;127.058;2023-08-17T09:45:28;34.53;;;11.60;;
74715;SDS011;63234;37.558;127.058;2023-08-17T09:47:58;48.45;;;19.70;;
74715;SDS011;63234;37.558;127.058;2023-08-17T09:50:25;39.22;;;16.83;;
74715;SDS011;63234;37.558;127.058;2023-08-17T09:52:54;35.67;;;11.75;;
74715;SDS011;63234;37.558;127.058;2023-08-17T09:55:23;27.80;;;11.32;;
74715;SDS011;63234;37.558;127.058;2023-08-17T09:57:50;36.08;;;16.20;;
74715;SDS011;63234;37.558;127.058;2023-08-17T10:00:17;39.38;;;13.40;;
74715;SDS011;63234;37.558;127.058;2023-08-17T10:02:49;36.78;;;12.98;;
74715;SDS011;63234;37.558;127.058;2023-08-17T10:05:18;42.10;;;14.23;;
74715;SDS011;63234;37.558;127.058;2023-08-17T10:07:53;30.60;;;12.40;;
74715;SDS011;63234;37.558;127.058;2023-08-17T10:10:23;29.08;;;12.00;;
74715;SDS011;63234;37.558;127.058;2023-08-17T10:13:00;37.03;;;13.55;;
74715;SDS011;63234;37.558;127.058;2023-08-17T10:15:34;46.70;;;20.88;;
74715;SDS011;63234;37.558;127.058;2023-08-17T10:20:37;44.45;;;15.57;;
74715;SDS011;63234;37.558;127.058;2023-08-17T10:23:14;39.90;;;14.55;;
74715;SDS011;63234;37.558;127.058;2023-08-17T10:25:44;39.15;;;14.05;;
74715;SDS011;63234;37.558;127.058;2023-08-17T10:28:10;36.03;;;14.98;;
74715;SDS011;63234;37.558;127.058;2023-08-17T10:30:37;38.80;;;17.88;;
74715;SDS011;63234;37.558;127.058;2023-08-17T10:33:04;48.08;;;22.08;;
74715;SDS011;63234;37.558;127.058;2023-08-17T10:35:32;30.75;;;13.63;;
74715;SDS011;63234;37.558;127.058;2023-08-17T10:37:59;39.42;;;14.55;;
74715;SDS011;63234;37.558;127.058;2023-08-17T10:40:26;48.90;;;22.23;;
74715;SDS011;63234;37.558;127.058;2023-08-17T10:42:55;33.78;;;13.35;;
74715;SDS011;63234;37.558;127.058;2023-08-17T10:47:47;35.17;;;18.73;;
74715;SDS011;63234;37.558;127.058;2023-08-17T10:50:22;42.35;;;28.58;;
74715;SDS011;63234;37.558;127.058;2023-08-17T10:52:50;39.75;;;29.15;;
74715;SDS011;63234;37.558;127.058;2023-08-17T10:55:20;46.83;;;35.40;;
74715;SDS011;63234;37.558;127.058;2023-08-17T10:58:01;67.88;;;46.17;;
74715;SDS011;63234;37.558;127.058;2023-08-17T11:00:31;76.63;;;49.67;;
74715;SDS011;63234;37.558;127.058;2023-08-17T11:03:05;66.75;;;41.05;;
74715;SDS011;63234;37.558;127.058;2023-08-17T11:05:39;67.93;;;44.45;;
74715;SDS011;63234;37.558;127.058;2023-08-17T11:08:10;52.95;;;36.33;;
74715;SDS011;63234;37.558;127.058;2023-08-17T11:13:41;79.47;;;55.13;;
74715;SDS011;63234;37.558;127.058;2023-08-17T11:16:09;73.53;;;51.08;;
74715;SDS011;63234;37.558;127.058;2023-08-17T11:18:37;96.57;;;59.63;;
74715;SDS011;63234;37.558;127.058;2023-08-17T11:21:05;85.07;;;58.28;;
74715;SDS011;63234;37.558;127.058;2023-08-17T11:23:32;74.78;;;53.33;;
74715;SDS011;63234;37.558;127.058;2023-08-17T11:25:59;79.90;;;62.00;;
74715;SDS011;63234;37.558;127.058;2023-08-17T11:28:26;82.95;;;62.05;;
74715;SDS011;63234;37.558;127.058;2023-08-17T11:31:02;89.82;;;65.75;;
74715;SDS011;63234;37.558;127.058;2023-08-17T11:33:31;99.50;;;70.38;;
74715;SDS011;63234;37.558;127.058;2023-08-17T11:35:58;90.38;;;67.20;;
74715;SDS011;63234;37.558;127.058;2023-08-17T11:38:26;100.82;;;69.82;;
74715;SDS011;63234;37.558;127.058;2023-08-17T11:40:55;76.78;;;62.30;;
74715;SDS011;63234;37.558;127.058;2023-08-17T11:43:24;100.28;;;69.00;;
74715;SDS011;63234;37.558;127.058;2023-08-17T11:45:51;94.70;;;62.10;;
74715;SDS011;63234;37.558;127.058;2023-08-17T11:48:20;91.10;;;63.88;;
74715;SDS011;63234;37.558;127.058;2023-08-17T11:50:46;92.55;;;59.70;;
74715;SDS011;63234;37.558;127.058;2023-08-17T11:53:11;54.17;;;29.65;;
74715;SDS011;63234;37.558;127.058;2023-08-17T11:55:37;66.43;;;44.45;;
74715;SDS011;63234;37.558;127.058;2023-08-17T11:58:03;94.85;;;65.72;;
74715;SDS011;63234;37.558;127.058;2023-08-17T12:00:34;106.22;;;70.97;;
74715;SDS011;63234;37.558;127.058;2023-08-17T12:03:04;102.18;;;73.20;;
74715;SDS011;63234;37.558;127.058;2023-08-17T12:05:31;121.22;;;75.43;;
74715;SDS011;63234;37.558;127.058;2023-08-17T12:08:01;56.53;;;28.35;;
74715;SDS011;63234;37.558;127.058;2023-08-17T12:10:28;56.75;;;38.33;;
74715;SDS011;63234;37.558;127.058;2023-08-17T12:13:00;103.82;;;66.00;;
74715;SDS011;63234;37.558;127.058;2023-08-17T12:15:33;93.10;;;66.13;;
74715;SDS011;63234;37.558;127.058;2023-08-17T12:18:02;68.93;;;47.20;;
74715;SDS011;63234;37.558;127.058;2023-08-17T12:20:29;116.35;;;77.45;;
74715;SDS011;63234;37.558;127.058;2023-08-17T12:22:57;119.03;;;78.18;;
74715;SDS011;63234;37.558;127.058;2023-08-17T12:25:24;136.38;;;86.18;;
74715;SDS011;63234;37.558;127.058;2023-08-17T12:27:51;138.88;;;84.65;;
74715;SDS011;63234;37.558;127.058;2023-08-17T12:30:24;105.38;;;58.65;;
74715;SDS011;63234;37.558;127.058;2023-08-17T12:32:52;122.60;;;77.07;;
74715;SDS011;63234;37.558;127.058;2023-08-17T12:35:18;61.65;;;45.78;;
74715;SDS011;63234;37.558;127.058;2023-08-17T12:37:46;52.25;;;32.78;;
74715;SDS011;63234;37.558;127.058;2023-08-17T12:40:13;64.88;;;37.20;;
74715;SDS011;63234;37.558;127.058;2023-08-17T12:42:39;60.22;;;37.25;;
74715;SDS011;63234;37.558;127.058;2023-08-17T12:45:05;83.63;;;56.30;;
74715;SDS011;63234;37.558;127.058;2023-08-17T12:47:31;70.82;;;48.42;;
74715;SDS011;63234;37.558;127.058;2023-08-17T12:49:57;96.68;;;66.40;;
74715;SDS011;63234;37.558;127.058;2023-08-17T12:52:23;90.88;;;58.47;;
74715;SDS011;63234;37.558;127.058;2023-08-17T12:54:49;73.97;;;51.63;;
74715;SDS011;63234;37.558;127.058;2023-08-17T12:57:14;87.72;;;56.13;;
74715;SDS011;63234;37.558;127.058;2023-08-17T12:59:40;52.75;;;28.10;;
74715;SDS011;63234;37.558;127.058;2023-08-17T13:02:06;75.93;;;55.08;;
74715;SDS011;63234;37.558;127.058;2023-08-17T13:04:32;52.85;;;34.00;;
74715;SDS011;63234;37.558;127.058;2023-08-17T13:06:58;74.68;;;53.60;;
74715;SDS011;63234;37.558;127.058;2023-08-17T13:09:24;92.70;;;60.22;;
74715;SDS011;63234;37.558;127.058;2023-08-17T13:11:50;58.65;;;36.65;;
74715;SDS011;63234;37.558;127.058;2023-08-17T13:14:15;63.40;;;32.47;;
74715;SDS011;63234;37.558;127.058;2023-08-17T13:16:42;71.50;;;46.25;;
74715;SDS011;63234;37.558;127.058;2023-08-17T13:19:08;124.18;;;74.15;;
74715;SDS011;63234;37.558;127.058;2023-08-17T13:21:33;132.90;;;80.15;;
74715;SDS011;63234;37.558;127.058;2023-08-17T13:23:59;81.72;;;51.03;;
74715;SDS011;63234;37.558;127.058;2023-08-17T13:26:25;81.80;;;53.97;;
74715;SDS011;63234;37.558;127.058;2023-08-17T13:28:51;107.65;;;73.82;;
74715;SDS011;63234;37.558;127.058;2023-08-17T13:31:17;110.30;;;77.15;;
74715;SDS011;63234;37.558;127.058;2023-08-17T13:33:43;80.68;;;49.78;;
74715;SDS011;63234;37.558;127.058;2023-08-17T13:36:09;101.45;;;68.72;;
74715;SDS011;63234;37.558;127.058;2023-08-17T13:38:34;117.20;;;78.07;;
74715;SDS011;63234;37.558;127.058;2023-08-17T13:41:00;161.07;;;96.20;;
74715;SDS011;63234;37.558;127.058;2023-08-17T13:43:26;173.45;;;101.15;;
74715;SDS011;63234;37.558;127.058;2023-08-17T13:45:52;149.18;;;92.35;;
74715;SDS011;63234;37.558;127.058;2023-08-17T13:48:18;182.30;;;102.80;;
74715;SDS011;63234;37.558;127.058;2023-08-17T13:50:44;159.70;;;97.90;;
74715;SDS011;63234;37.558;127.058;2023-08-17T13:53:10;158.73;;;97.03;;
74715;SDS011;63234;37.558;127.058;2023-08-17T13:55:36;152.00;;;94.82;;
74715;SDS011;63234;37.558;127.058;2023-08-17T13:58:02;164.43;;;97.22;;
74715;SDS011;63234;37.558;127.058;2023-08-17T14:00:28;165.70;;;98.72;;
74715;SDS011;63234;37.558;127.058;2023-08-17T14:02:53;187.85;;;105.47;;
74715;SDS011;63234;37.558;127.058;2023-08-17T14:05:19;172.25;;;99.80;;
74715;SDS011;63234;37.558;127.058;2023-08-17T14:07:46;166.27;;;98.40;;
74715;SDS011;63234;37.558;127.058;2023-08-17T14:10:13;182.75;;;104.13;;
74715;SDS011;63234;37.558;127.058;2023-08-17T14:12:39;172.48;;;101.70;;